sensor_id;sensor_type;location;lat;lon;timestamp;pressure;altitude;pressure_sealevel;temperature;humidity
78643;BME280;67954;47.618;17.606;2023-04-03T00:00:13;100522.91;;;5.61;65.73
78643;BME280;67954;47.618;17.606;2023-04-03T00:00:44;100520.16;;;5.63;65.83
78643;BME280;67954;47.618;17.606;2023-04-03T00:01:16;100520.16;;;5.63;65.69
78643;BME280;67954;47.618;17.606;2023-04-03T00:01:48;100521.22;;;5.60;65.85
78643;BME280;67954;47.618;17.606;2023-04-03T00:02:19;100521.31;;;5.59;65.65
78643;BME280;67954;47.618;17.606;2023-04-03T00:02:50;100525.47;;;5.63;65.92
78643;BME280;67954;47.618;17.606;2023-04-03T00:03:22;100520.03;;;5.64;65.62
78643;BME280;67954;47.618;17.606;2023-04-03T00:03:53;100525.06;;;5.69;65.32
78643;BME280;67954;47.618;17.606;2023-04-03T00:04:23;100521.66;;;5.67;65.54
78643;BME280;67954;47.618;17.606;2023-04-03T00:04:55;100523.56;;;5.65;65.67
78643;BME280;67954;47.618;17.606;2023-04-03T00:05:26;100525.47;;;5.63;65.66
78643;BME280;67954;47.618;17.606;2023-04-03T00:05:57;100525.78;;;5.58;66.14
78643;BME280;67954;47.618;17.606;2023-04-03T00:06:29;100518.91;;;5.56;66.00
78643;BME280;67954;47.618;17.606;2023-04-03T00:06:59;100522.16;;;5.59;65.78
78643;BME280;67954;47.618;17.606;2023-04-03T00:07:30;100525.78;;;5.58;66.09
78643;BME280;67954;47.618;17.606;2023-04-03T00:08:02;100524.31;;;5.67;65.83
78643;BME280;67954;47.618;17.606;2023-04-03T00:08:35;100515.03;;;5.60;65.88
78643;BME280;67954;47.618;17.606;2023-04-03T00:09:06;100516.22;;;5.56;65.86
78643;BME280;67954;47.618;17.606;2023-04-03T00:09:37;100518.78;;;5.57;66.29
78643;BME280;67954;47.618;17.606;2023-04-03T00:10:09;100525.19;;;5.55;66.40
78643;BME280;67954;47.618;17.606;2023-04-03T00:10:40;100518.66;;;5.59;66.06
78643;BME280;67954;47.618;17.606;2023-04-03T00:11:13;100513.78;;;5.53;66.23
78643;BME280;67954;47.618;17.606;2023-04-03T00:11:45;100518.66;;;5.59;66.55
78643;BME280;67954;47.618;17.606;2023-04-03T00:12:16;100522.81;;;5.63;66.03
78643;BME280;67954;47.618;17.606;2023-04-03T00:12:48;100515.66;;;5.63;66.34
78643;BME280;67954;47.618;17.606;2023-04-03T00:13:19;100523.03;;;5.60;66.17
78643;BME280;67954;47.618;17.606;2023-04-03T00:13:50;100525.09;;;5.56;66.43
78643;BME280;67954;47.618;17.606;2023-04-03T00:14:21;100519.09;;;5.53;66.24
78643;BME280;67954;47.618;17.606;2023-04-03T00:14:52;100519.31;;;5.50;66.64
78643;BME280;67954;47.618;17.606;2023-04-03T00:15:23;100522.16;;;5.59;66.34
78643;BME280;67954;47.618;17.606;2023-04-03T00:15:55;100518.66;;;5.59;66.69
78643;BME280;67954;47.618;17.606;2023-04-03T00:16:26;100521.09;;;5.62;66.22
78643;BME280;67954;47.618;17.606;2023-04-03T00:16:56;100523.97;;;5.59;66.31
78643;BME280;67954;47.618;17.606;2023-04-03T00:17:28;100515.78;;;5.62;66.90
78643;BME280;67954;47.618;17.606;2023-04-03T00:17:59;100515.28;;;5.57;66.60
78643;BME280;67954;47.618;17.606;2023-04-03T00:18:31;100515.03;;;5.60;66.11
78643;BME280;67954;47.618;17.606;2023-04-03T00:19:02;100513.84;;;5.64;66.24
78643;BME280;67954;47.618;17.606;2023-04-03T00:19:33;100519.94;;;5.66;66.48
78643;BME280;67954;47.618;17.606;2023-04-03T00:20:05;100519.28;;;5.62;66.37
78643;BME280;67954;47.618;17.606;2023-04-03T00:20:36;100519.84;;;5.55;66.38
78643;BME280;67954;47.618;17.606;2023-04-03T00:21:10;100519.31;;;5.50;66.52
78643;BME280;67954;47.618;17.606;2023-04-03T00:21:42;100517.31;;;5.53;66.58
78643;BME280;67954;47.618;17.606;2023-04-03T00:22:13;100511.13;;;5.53;66.63
78643;BME280;67954;47.618;17.606;2023-04-03T00:22:45;100514.00;;;5.50;66.64
78643;BME280;67954;47.618;17.606;2023-04-03T00:23:16;100508.25;;;5.56;66.87
78643;BME280;67954;47.618;17.606;2023-04-03T00:23:47;100508.63;;;5.62;66.73
78643;BME280;67954;47.618;17.606;2023-04-03T00:24:18;100502.34;;;5.63;66.18
78643;BME280;67954;47.618;17.606;2023-04-03T00:24:49;100512.25;;;5.61;66.36
78643;BME280;67954;47.618;17.606;2023-04-03T00:25:20;100519.50;;;5.59;66.58
78643;BME280;67954;47.618;17.606;2023-04-03T00:25:53;100507.28;;;5.57;67.10
78643;BME280;67954;47.618;17.606;2023-04-03T00:26:25;100511.41;;;5.61;66.93
78643;BME280;67954;47.618;17.606;2023-04-03T00:26:56;100516.75;;;5.48;66.55
78643;BME280;67954;47.618;17.606;2023-04-03T00:27:28;100509.19;;;5.55;66.69
78643;BME280;67954;47.618;17.606;2023-04-03T00:27:58;100507.38;;;5.55;67.22
78643;BME280;67954;47.618;17.606;2023-04-03T00:28:29;100511.44;;;5.48;66.35
78643;BME280;67954;47.618;17.606;2023-04-03T00:29:01;100515.59;;;5.52;66.72
78643;BME280;67954;47.618;17.606;2023-04-03T00:29:32;100514.75;;;5.52;66.56
78643;BME280;67954;47.618;17.606;2023-04-03T00:30:04;100513.22;;;5.60;66.35
78643;BME280;67954;47.618;17.606;2023-04-03T00:30:36;100519.50;;;5.59;66.67
78643;BME280;67954;47.618;17.606;2023-04-03T00:31:07;100516.66;;;5.50;67.01
78643;BME280;67954;47.618;17.606;2023-04-03T00:31:38;100510.81;;;5.45;67.34
78643;BME280;67954;47.618;17.606;2023-04-03T00:32:10;100520.91;;;5.52;66.50
78643;BME280;67954;47.618;17.606;2023-04-03T00:32:41;100515.06;;;5.47;66.96
78643;BME280;67954;47.618;17.606;2023-04-03T00:33:12;100510.56;;;5.48;66.95
78643;BME280;67954;47.618;17.606;2023-04-03T00:33:44;100518.16;;;5.54;66.86
78643;BME280;67954;47.618;17.606;2023-04-03T00:34:15;100522.53;;;5.42;66.53
78643;BME280;67954;47.618;17.606;2023-04-03T00:34:47;100517.63;;;5.49;66.96
78643;BME280;67954;47.618;17.606;2023-04-03T00:35:19;100517.31;;;5.53;66.93
78643;BME280;67954;47.618;17.606;2023-04-03T00:35:50;100526.78;;;5.57;66.68
78643;BME280;67954;47.618;17.606;2023-04-03T00:36:22;100519.41;;;5.61;66.97
78643;BME280;67954;47.618;17.606;2023-04-03T00:36:53;100517.28;;;5.66;66.59
78643;BME280;67954;47.618;17.606;2023-04-03T00:37:24;100512.72;;;5.55;66.83
78643;BME280;67954;47.618;17.606;2023-04-03T00:37:56;100522.06;;;5.61;66.39
78643;BME280;67954;47.618;17.606;2023-04-03T00:38:27;100519.28;;;5.62;66.15
78643;BME280;67954;47.618;17.606;2023-04-03T00:38:57;100519.63;;;5.70;66.34
78643;BME280;67954;47.618;17.606;2023-04-03T00:39:29;100521.28;;;5.71;66.39
78643;BME280;67954;47.618;17.606;2023-04-03T00:40:01;100515.13;;;5.71;66.40
78643;BME280;67954;47.618;17.606;2023-04-03T00:40:34;100520.16;;;5.63;66.28
78643;BME280;67954;47.618;17.606;2023-04-03T00:41:06;100528.34;;;5.60;66.36
78643;BME280;67954;47.618;17.606;2023-04-03T00:41:39;100526.44;;;5.62;66.26
78643;BME280;67954;47.618;17.606;2023-04-03T00:42:10;100527.19;;;5.64;66.35
78643;BME280;67954;47.618;17.606;2023-04-03T00:42:43;100529.28;;;5.71;66.30
78643;BME280;67954;47.618;17.606;2023-04-03T00:43:21;100525.78;;;5.58;66.23
78643;BME280;67954;47.618;17.606;2023-04-03T00:43:52;100525.09;;;5.56;66.55
78643;BME280;67954;47.618;17.606;2023-04-03T00:45:33;100519.94;;;5.66;66.34
78643;BME280;67954;47.618;17.606;2023-04-03T00:46:05;100531.44;;;5.66;66.70
78643;BME280;67954;47.618;17.606;2023-04-03T00:46:36;100526.97;;;5.67;66.56
78643;BME280;67954;47.618;17.606;2023-04-03T00:47:09;100525.06;;;5.69;66.09
78643;BME280;67954;47.618;17.606;2023-04-03T00:47:42;100516.63;;;5.62;66.07
78643;BME280;67954;47.618;17.606;2023-04-03T00:48:15;100529.53;;;5.68;66.17
78643;BME280;67954;47.618;17.606;2023-04-03T00:48:48;100524.09;;;5.70;65.77
78643;BME280;67954;47.618;17.606;2023-04-03T00:49:20;100520.97;;;5.76;65.98
78643;BME280;67954;47.618;17.606;2023-04-03T00:49:52;100520.47;;;5.71;65.88
78643;BME280;67954;47.618;17.606;2023-04-03T00:50:24;100513.44;;;5.70;66.21
78643;BME280;67954;47.618;17.606;2023-04-03T00:50:55;100527.06;;;5.65;66.14
78643;BME280;67954;47.618;17.606;2023-04-03T00:51:28;100530.59;;;5.66;66.42
78643;BME280;67954;47.618;17.606;2023-04-03T00:51:59;100523.25;;;5.69;65.95
78643;BME280;67954;47.618;17.606;2023-04-03T00:52:31;100520.22;;;5.74;65.85
78643;BME280;67954;47.618;17.606;2023-04-03T00:53:03;100522.88;;;5.74;66.01
78643;BME280;67954;47.618;17.606;2023-04-03T00:53:40;100521.28;;;5.71;66.29
78643;BME280;67954;47.618;17.606;2023-04-03T00:54:12;100519.63;;;5.70;65.60
78643;BME280;67954;47.618;17.606;2023-04-03T00:54:45;100522.59;;;5.66;65.89
78643;BME280;67954;47.618;17.606;2023-04-03T00:55:18;100528.25;;;5.61;65.57
78643;BME280;67954;47.618;17.606;2023-04-03T00:55:51;100526.91;;;5.56;65.99
78643;BME280;67954;47.618;17.606;2023-04-03T00:56:25;100529.56;;;5.56;65.74
78643;BME280;67954;47.618;17.606;2023-04-03T00:56:59;100530.31;;;5.58;65.69
78643;BME280;67954;47.618;17.606;2023-04-03T00:57:31;100532.53;;;5.64;65.93
78643;BME280;67954;47.618;17.606;2023-04-03T00:58:04;100532.19;;;5.68;66.15
78643;BME280;67954;47.618;17.606;2023-04-03T00:58:41;100526.88;;;5.68;65.72
78643;BME280;67954;47.618;17.606;2023-04-03T00:59:16;100521.97;;;5.62;66.11
78643;BME280;67954;47.618;17.606;2023-04-03T00:59:56;100521.56;;;5.56;65.87
78643;BME280;67954;47.618;17.606;2023-04-03T01:00:29;100526.66;;;5.59;66.18
78643;BME280;67954;47.618;17.606;2023-04-03T01:01:05;100530.81;;;5.63;66.22
78643;BME280;67954;47.618;17.606;2023-04-03T01:01:38;100533.38;;;5.64;66.09
78643;BME280;67954;47.618;17.606;2023-04-03T01:02:10;100531.25;;;5.69;65.82
78643;BME280;67954;47.618;17.606;2023-04-03T01:02:41;100522.59;;;5.66;65.75
78643;BME280;67954;47.618;17.606;2023-04-03T01:03:12;100528.69;;;5.68;66.09
78643;BME280;67954;47.618;17.606;2023-04-03T01:03:43;100522.50;;;5.67;66.28
78643;BME280;67954;47.618;17.606;2023-04-03T01:04:26;100531.56;;;5.65;66.01
78643;BME280;67954;47.618;17.606;2023-04-03T01:04:58;100532.66;;;5.50;65.97
78643;BME280;67954;47.618;17.606;2023-04-03T01:05:29;100522.53;;;5.42;65.96
78643;BME280;67954;47.618;17.606;2023-04-03T01:06:00;100520.38;;;5.47;65.82
78643;BME280;67954;47.618;17.606;2023-04-03T01:06:35;100522.63;;;5.53;66.24
78643;BME280;67954;47.618;17.606;2023-04-03T01:07:08;100528.69;;;5.55;66.29
78643;BME280;67954;47.618;17.606;2023-04-03T01:07:41;100525.09;;;5.56;66.46
78643;BME280;67954;47.618;17.606;2023-04-03T01:08:12;100524.13;;;5.57;66.17
78643;BME280;67954;47.618;17.606;2023-04-03T01:08:44;100527.63;;;5.58;66.20
78643;BME280;67954;47.618;17.606;2023-04-03T01:09:17;100532.97;;;5.58;66.38
78643;BME280;67954;47.618;17.606;2023-04-03T01:09:51;100522.31;;;5.58;66.40
78643;BME280;67954;47.618;17.606;2023-04-03T01:10:23;100526.78;;;5.57;66.12
78643;BME280;67954;47.618;17.606;2023-04-03T01:10:56;100527.00;;;5.54;66.44
78643;BME280;67954;47.618;17.606;2023-04-03T01:11:27;100531.13;;;5.58;66.31
78643;BME280;67954;47.618;17.606;2023-04-03T01:12:54;100527.75;;;5.56;66.37
78643;BME280;67954;47.618;17.606;2023-04-03T01:13:28;100528.59;;;5.57;66.35
78643;BME280;67954;47.618;17.606;2023-04-03T01:13:59;100529.78;;;5.53;66.63
78643;BME280;67954;47.618;17.606;2023-04-03T01:14:32;100521.47;;;5.45;66.41
78643;BME280;67954;47.618;17.606;2023-04-03T01:15:07;100528.47;;;5.46;66.27
78643;BME280;67954;47.618;17.606;2023-04-03T01:15:39;100523.03;;;5.47;66.55
78643;BME280;67954;47.618;17.606;2023-04-03T01:16:10;100521.13;;;5.49;66.33
78643;BME280;67954;47.618;17.606;2023-04-03T01:16:42;100529.56;;;5.43;66.07
78643;BME280;67954;47.618;17.606;2023-04-03T01:17:28;100526.28;;;5.39;66.57
78643;BME280;67954;47.618;17.606;2023-04-03T01:18:00;100525.81;;;5.46;66.65
78643;BME280;67954;47.618;17.606;2023-04-03T01:18:32;100521.25;;;5.48;66.36
78643;BME280;67954;47.618;17.606;2023-04-03T01:19:11;100527.88;;;5.42;66.37
78643;BME280;67954;47.618;17.606;2023-04-03T01:19:57;100531.59;;;5.39;66.37
78643;BME280;67954;47.618;17.606;2023-04-03T01:22:10;100525.72;;;5.34;66.64
78643;BME280;67954;47.618;17.606;2023-04-03T01:22:55;100525.63;;;5.36;67.03
78643;BME280;67954;47.618;17.606;2023-04-03T01:23:37;100521.47;;;5.45;66.65
78643;BME280;67954;47.618;17.606;2023-04-03T01:24:22;100525.81;;;5.33;66.70
78643;BME280;67954;47.618;17.606;2023-04-03T01:24:56;100525.63;;;5.36;66.46
78643;BME280;67954;47.618;17.606;2023-04-03T01:25:27;100519.34;;;5.37;66.78
78643;BME280;67954;47.618;17.606;2023-04-03T01:25:58;100530.53;;;5.42;66.48
78643;BME280;67954;47.618;17.606;2023-04-03T01:26:30;100529.78;;;5.40;66.83
78643;BME280;67954;47.618;17.606;2023-04-03T01:27:05;100524.34;;;5.42;67.25
78643;BME280;67954;47.618;17.606;2023-04-03T01:27:36;100526.16;;;5.28;66.63
78643;BME280;67954;47.618;17.606;2023-04-03T01:28:11;100526.16;;;5.28;66.49
78643;BME280;67954;47.618;17.606;2023-04-03T01:28:42;100530.84;;;5.25;66.32
78643;BME280;67954;47.618;17.606;2023-04-03T01:29:13;100527.34;;;5.24;66.12
78643;BME280;67954;47.618;17.606;2023-04-03T01:29:46;100520.31;;;5.23;66.50
78643;BME280;67954;47.618;17.606;2023-04-03T01:30:18;100523.06;;;5.22;66.32
78643;BME280;67954;47.618;17.606;2023-04-03T01:30:55;100524.47;;;5.15;66.59
78643;BME280;67954;47.618;17.606;2023-04-03T01:31:46;100529.16;;;5.24;66.44
78643;BME280;67954;47.618;17.606;2023-04-03T01:32:18;100530.22;;;5.21;66.35
78643;BME280;67954;47.618;17.606;2023-04-03T01:32:48;100522.88;;;5.25;66.56
78643;BME280;67954;47.618;17.606;2023-04-03T01:33:19;100526.91;;;5.30;66.49
78643;BME280;67954;47.618;17.606;2023-04-03T01:33:51;100518.06;;;5.30;66.09
78643;BME280;67954;47.618;17.606;2023-04-03T01:34:23;100519.34;;;5.24;65.79
78643;BME280;67954;47.618;17.606;2023-04-03T01:34:53;100523.16;;;5.20;66.22
78643;BME280;67954;47.618;17.606;2023-04-03T01:35:26;100520.66;;;5.19;66.50
78643;BME280;67954;47.618;17.606;2023-04-03T01:35:57;100530.00;;;5.24;66.58
78643;BME280;67954;47.618;17.606;2023-04-03T01:36:29;100525.72;;;5.22;66.70
78643;BME280;67954;47.618;17.606;2023-04-03T01:37:01;100522.47;;;5.18;66.09
78643;BME280;67954;47.618;17.606;2023-04-03T01:37:32;100529.25;;;5.22;66.52
78643;BME280;67954;47.618;17.606;2023-04-03T01:38:03;100529.91;;;5.26;66.04
78643;BME280;67954;47.618;17.606;2023-04-03T01:38:34;100524.88;;;5.21;65.96
78643;BME280;67954;47.618;17.606;2023-04-03T01:39:06;100526.47;;;5.24;66.16
78643;BME280;67954;47.618;17.606;2023-04-03T01:39:36;100527.44;;;5.23;66.53
78643;BME280;67954;47.618;17.606;2023-04-03T01:40:08;100528.09;;;5.14;66.11
78643;BME280;67954;47.618;17.606;2023-04-03T01:40:40;100521.59;;;5.18;65.89
78643;BME280;67954;47.618;17.606;2023-04-03T01:41:11;100521.72;;;5.16;65.98
78643;BME280;67954;47.618;17.606;2023-04-03T01:41:42;100518.59;;;5.22;66.25
78643;BME280;67954;47.618;17.606;2023-04-03T01:42:14;100527.97;;;5.28;66.23
78643;BME280;67954;47.618;17.606;2023-04-03T01:42:46;100526.28;;;5.27;66.08
78643;BME280;67954;47.618;17.606;2023-04-03T01:43:17;100532.34;;;5.29;65.71
78643;BME280;67954;47.618;17.606;2023-04-03T01:43:48;100532.34;;;5.29;65.63
78643;BME280;67954;47.618;17.606;2023-04-03T01:44:20;100525.22;;;5.29;65.99
78643;BME280;67954;47.618;17.606;2023-04-03T01:44:51;100523.31;;;5.31;65.72
78643;BME280;67954;47.618;17.606;2023-04-03T01:45:22;100526.69;;;5.33;65.81
78643;BME280;67954;47.618;17.606;2023-04-03T01:45:54;100531.50;;;5.28;65.41
78643;BME280;67954;47.618;17.606;2023-04-03T01:46:25;100530.09;;;5.23;65.30
78643;BME280;67954;47.618;17.606;2023-04-03T01:46:57;100528.09;;;5.26;65.56
78643;BME280;67954;47.618;17.606;2023-04-03T01:47:29;100525.97;;;5.31;65.36
78643;BME280;67954;47.618;17.606;2023-04-03T01:48:00;100526.16;;;5.28;65.55
78643;BME280;67954;47.618;17.606;2023-04-03T01:48:31;100533.72;;;5.22;65.26
78643;BME280;67954;47.618;17.606;2023-04-03T01:49:03;100527.53;;;5.21;65.42
78643;BME280;67954;47.618;17.606;2023-04-03T01:49:34;100528.94;;;5.27;65.57
78643;BME280;67954;47.618;17.606;2023-04-03T01:50:05;100532.66;;;5.24;65.89
78643;BME280;67954;47.618;17.606;2023-04-03T01:50:37;100529.16;;;5.24;65.95
78643;BME280;67954;47.618;17.606;2023-04-03T01:51:08;100525.41;;;5.26;65.79
78643;BME280;67954;47.618;17.606;2023-04-03T01:51:39;100531.50;;;5.28;65.82
78643;BME280;67954;47.618;17.606;2023-04-03T01:52:11;100524.38;;;5.29;66.38
78643;BME280;67954;47.618;17.606;2023-04-03T01:52:42;100530.00;;;5.24;65.66
78643;BME280;67954;47.618;17.606;2023-04-03T01:53:13;100529.16;;;5.24;65.94
78643;BME280;67954;47.618;17.606;2023-04-03T01:53:44;100522.56;;;5.17;66.28
78643;BME280;67954;47.618;17.606;2023-04-03T01:54:15;100527.53;;;5.21;65.64
78643;BME280;67954;47.618;17.606;2023-04-03T01:54:46;100515.72;;;5.25;65.79
78643;BME280;67954;47.618;17.606;2023-04-03T01:55:18;100522.66;;;5.15;65.67
78643;BME280;67954;47.618;17.606;2023-04-03T01:55:49;100524.78;;;5.23;66.06
78643;BME280;67954;47.618;17.606;2023-04-03T01:56:19;100527.34;;;5.24;66.09
78643;BME280;67954;47.618;17.606;2023-04-03T01:56:51;100525.63;;;5.23;66.04
78643;BME280;67954;47.618;17.606;2023-04-03T01:57:22;100518.69;;;5.21;66.30
78643;BME280;67954;47.618;17.606;2023-04-03T01:57:53;100518.94;;;5.18;66.19
78643;BME280;67954;47.618;17.606;2023-04-03T01:58:25;100515.06;;;5.22;66.01
78643;BME280;67954;47.618;17.606;2023-04-03T01:58:56;100516.16;;;5.19;66.39
78643;BME280;67954;47.618;17.606;2023-04-03T01:59:26;100520.41;;;5.22;66.08
78643;BME280;67954;47.618;17.606;2023-04-03T01:59:58;100517.63;;;5.11;66.21
78643;BME280;67954;47.618;17.606;2023-04-03T02:00:29;100518.28;;;5.14;66.60
78643;BME280;67954;47.618;17.606;2023-04-03T02:01:00;100519.66;;;5.20;66.31
78643;BME280;67954;47.618;17.606;2023-04-03T02:01:31;100515.94;;;5.22;66.33
78643;BME280;67954;47.618;17.606;2023-04-03T02:02:05;100518.50;;;5.24;66.68
78643;BME280;67954;47.618;17.606;2023-04-03T02:02:36;100513.59;;;5.18;66.04
78643;BME280;67954;47.618;17.606;2023-04-03T02:03:07;100512.75;;;5.17;66.42
78643;BME280;67954;47.618;17.606;2023-04-03T02:03:38;100513.50;;;5.19;66.61
78643;BME280;67954;47.618;17.606;2023-04-03T02:04:09;100516.78;;;5.23;66.33
78643;BME280;67954;47.618;17.606;2023-04-03T02:04:40;100518.28;;;5.27;66.77
78643;BME280;67954;47.618;17.606;2023-04-03T02:05:12;100524.38;;;5.29;66.27
78643;BME280;67954;47.618;17.606;2023-04-03T02:05:43;100523.63;;;5.27;66.44
78643;BME280;67954;47.618;17.606;2023-04-03T02:06:14;100522.56;;;5.29;66.17
78643;BME280;67954;47.618;17.606;2023-04-03T02:06:45;100526.16;;;5.28;66.65
78643;BME280;67954;47.618;17.606;2023-04-03T02:07:17;100525.13;;;5.18;66.32
78643;BME280;67954;47.618;17.606;2023-04-03T02:07:48;100529.59;;;5.18;66.57
78643;BME280;67954;47.618;17.606;2023-04-03T02:08:19;100524.16;;;5.19;66.90
78643;BME280;67954;47.618;17.606;2023-04-03T02:08:51;100526.47;;;5.24;66.22
78643;BME280;67954;47.618;17.606;2023-04-03T02:09:21;100530.09;;;5.23;66.68
78643;BME280;67954;47.618;17.606;2023-04-03T02:09:52;100529.25;;;5.22;66.72
78643;BME280;67954;47.618;17.606;2023-04-03T02:10:24;100525.72;;;5.22;66.68
78643;BME280;67954;47.618;17.606;2023-04-03T02:10:55;100528.50;;;5.20;66.42
78643;BME280;67954;47.618;17.606;2023-04-03T02:11:26;100530.84;;;5.12;66.58
78643;BME280;67954;47.618;17.606;2023-04-03T02:11:58;100530.44;;;5.18;67.38
78643;BME280;67954;47.618;17.606;2023-04-03T02:12:29;100531.91;;;5.22;66.27
78643;BME280;67954;47.618;17.606;2023-04-03T02:12:59;100527.44;;;5.23;66.93
78643;BME280;67954;47.618;17.606;2023-04-03T02:13:31;100532.56;;;5.26;66.79
78643;BME280;67954;47.618;17.606;2023-04-03T02:14:02;100534.16;;;5.28;66.81
78643;BME280;67954;47.618;17.606;2023-04-03T02:14:33;100529.03;;;5.25;66.69
78643;BME280;67954;47.618;17.606;2023-04-03T02:15:06;100527.13;;;5.27;66.63
78643;BME280;67954;47.618;17.606;2023-04-03T02:15:37;100530.75;;;5.26;66.73
78643;BME280;67954;47.618;17.606;2023-04-03T02:16:10;100531.81;;;5.24;66.83
78643;BME280;67954;47.618;17.606;2023-04-03T02:16:42;100523.81;;;5.24;67.08
78643;BME280;67954;47.618;17.606;2023-04-03T02:17:15;100530.84;;;5.12;67.00
78643;BME280;67954;47.618;17.606;2023-04-03T02:17:45;100528.75;;;5.17;67.10
78643;BME280;67954;47.618;17.606;2023-04-03T02:18:16;100529.25;;;5.22;66.78
78643;BME280;67954;47.618;17.606;2023-04-03T02:18:49;100531.06;;;5.09;67.29
78643;BME280;67954;47.618;17.606;2023-04-03T02:19:20;100528.41;;;5.09;66.83
78643;BME280;67954;47.618;17.606;2023-04-03T02:19:51;100525.31;;;5.15;67.18
78643;BME280;67954;47.618;17.606;2023-04-03T02:20:23;100532.34;;;5.16;67.18
78643;BME280;67954;47.618;17.606;2023-04-03T02:20:54;100530.66;;;5.15;67.75
78643;BME280;67954;47.618;17.606;2023-04-03T02:21:25;100533.63;;;5.11;67.69
78643;BME280;67954;47.618;17.606;2023-04-03T02:21:58;100526.50;;;5.11;67.58
78643;BME280;67954;47.618;17.606;2023-04-03T02:22:29;100529.34;;;5.08;67.38
78643;BME280;67954;47.618;17.606;2023-04-03T02:23:00;100525.97;;;5.06;68.10
78643;BME280;67954;47.618;17.606;2023-04-03T02:23:32;100538.09;;;5.10;67.51
78643;BME280;67954;47.618;17.606;2023-04-03T02:24:03;100529.91;;;5.13;67.47
78643;BME280;67954;47.618;17.606;2023-04-03T02:24:34;100534.16;;;5.16;67.40
78643;BME280;67954;47.618;17.606;2023-04-03T02:25:06;100521.91;;;5.13;67.31
78643;BME280;67954;47.618;17.606;2023-04-03T02:25:37;100526.06;;;5.17;67.19
78643;BME280;67954;47.618;17.606;2023-04-03T02:26:10;100522.66;;;5.15;67.85
78643;BME280;67954;47.618;17.606;2023-04-03T02:26:42;100528.09;;;5.14;67.36
78643;BME280;67954;47.618;17.606;2023-04-03T02:27:13;100523.50;;;5.16;67.44
78643;BME280;67954;47.618;17.606;2023-04-03T02:27:45;100528.63;;;5.19;67.79
78643;BME280;67954;47.618;17.606;2023-04-03T02:28:16;100528.94;;;5.14;67.78
78643;BME280;67954;47.618;17.606;2023-04-03T02:28:47;100527.03;;;5.16;67.43
78643;BME280;67954;47.618;17.606;2023-04-03T02:29:18;100533.41;;;5.01;67.90
78643;BME280;67954;47.618;17.606;2023-04-03T02:29:50;100523.72;;;5.00;67.69
78643;BME280;67954;47.618;17.606;2023-04-03T02:30:21;100532.56;;;5.00;67.71
78643;BME280;67954;47.618;17.606;2023-04-03T02:30:52;100539.28;;;5.06;67.81
78643;BME280;67954;47.618;17.606;2023-04-03T02:31:22;100530.09;;;5.10;67.83
78643;BME280;67954;47.618;17.606;2023-04-03T02:31:55;100524.78;;;5.10;67.60
78643;BME280;67954;47.618;17.606;2023-04-03T02:32:27;100531.81;;;5.11;67.87
78643;BME280;67954;47.618;17.606;2023-04-03T02:32:58;100540.75;;;5.10;67.79
78643;BME280;67954;47.618;17.606;2023-04-03T02:33:29;100536.72;;;5.05;67.98
78643;BME280;67954;47.618;17.606;2023-04-03T02:34:00;100533.22;;;5.04;67.86
78643;BME280;67954;47.618;17.606;2023-04-03T02:34:31;100541.94;;;5.06;67.93
78643;BME280;67954;47.618;17.606;2023-04-03T02:35:04;100538.19;;;5.09;67.99
78643;BME280;67954;47.618;17.606;2023-04-03T02:35:34;100533.97;;;5.06;67.68
78643;BME280;67954;47.618;17.606;2023-04-03T02:36:08;100539.28;;;5.06;67.90
78643;BME280;67954;47.618;17.606;2023-04-03T02:36:40;100532.78;;;5.10;67.67
78643;BME280;67954;47.618;17.606;2023-04-03T02:37:11;100532.03;;;5.08;67.83
78643;BME280;67954;47.618;17.606;2023-04-03T02:37:42;100532.97;;;5.07;67.87
78643;BME280;67954;47.618;17.606;2023-04-03T02:38:12;100535.13;;;5.02;67.99
78643;BME280;67954;47.618;17.606;2023-04-03T02:38:44;100535.78;;;5.06;68.24
78643;BME280;67954;47.618;17.606;2023-04-03T02:39:16;100526.94;;;5.05;67.90
78643;BME280;67954;47.618;17.606;2023-04-03T02:39:46;100538.31;;;5.07;67.98
78643;BME280;67954;47.618;17.606;2023-04-03T02:40:18;100532.75;;;4.97;68.22
78643;BME280;67954;47.618;17.606;2023-04-03T02:40:50;100538.63;;;4.90;68.28
78643;BME280;67954;47.618;17.606;2023-04-03T02:41:21;100525.94;;;4.93;68.10
78643;BME280;67954;47.618;17.606;2023-04-03T02:41:53;100532.75;;;4.97;68.39
78643;BME280;67954;47.618;17.606;2023-04-03T02:42:24;100531.50;;;5.03;67.87
78643;BME280;67954;47.618;17.606;2023-04-03T02:42:55;100527.78;;;5.06;68.01
78643;BME280;67954;47.618;17.606;2023-04-03T02:43:27;100531.69;;;5.00;68.09
78643;BME280;67954;47.618;17.606;2023-04-03T02:43:58;100535.22;;;5.00;67.44
78643;BME280;67954;47.618;17.606;2023-04-03T02:44:29;100529.25;;;4.97;68.33
78643;BME280;67954;47.618;17.606;2023-04-03T02:45:00;100532.44;;;4.89;68.14
78643;BME280;67954;47.618;17.606;2023-04-03T02:45:31;100529.34;;;4.95;67.99
78643;BME280;67954;47.618;17.606;2023-04-03T02:46:02;100537.34;;;4.95;68.23
78643;BME280;67954;47.618;17.606;2023-04-03T02:46:34;100539.78;;;4.98;68.57
78643;BME280;67954;47.618;17.606;2023-04-03T02:47:05;100530.31;;;4.94;68.33
78643;BME280;67954;47.618;17.606;2023-04-03T02:47:37;100538.09;;;4.97;68.41
78643;BME280;67954;47.618;17.606;2023-04-03T02:48:09;100532.56;;;5.00;67.93
78643;BME280;67954;47.618;17.606;2023-04-03T02:48:40;100531.69;;;5.00;67.95
78643;BME280;67954;47.618;17.606;2023-04-03T02:49:11;100533.41;;;5.01;68.32
78643;BME280;67954;47.618;17.606;2023-04-03T02:49:42;100530.94;;;4.98;68.35
78643;BME280;67954;47.618;17.606;2023-04-03T02:50:15;100534.66;;;4.95;68.12
78643;BME280;67954;47.618;17.606;2023-04-03T02:50:46;100530.09;;;4.85;68.08
78643;BME280;67954;47.618;17.606;2023-04-03T02:51:17;100532.34;;;4.91;68.06